Home   Weather   United Kingdom   Haywards Heath   Past weeks
Flag for United Kingdom

Past Weather in Haywards Heath, England, United Kingdom — Yesterday and Last 2 Weeks

Currently: 27 °F. Clear. (Weather station: London / Gatwick Airport, United Kingdom). See more current weather

Past Weather in Haywards Heath — Graph

°F

Haywards Heath Temperature Yesterday

Maximum temperature yesterday: 46 °F (at 3:20 pm)
Minimum temperature yesterday: 23 °F (at 6:20 am)
Average temperature yesterday: 32 °F

High & Low Weather Summary for the Past Weeks

 TemperatureHumidityPressure
High55 °F (Feb 3, 1:20 pm)100% (Jan 25, 12:50 pm)30.89 "Hg (Jan 25, 12:50 pm)
Low23 °F (Feb 8, 6:20 am)35% (Feb 6, 3:20 pm)30.15 "Hg (Jan 30, 2:20 am)
Average42 °F82%30.48 "Hg
* Reported Jan 24 11:20 pm — Feb 8 11:20 pm, Haywards Heath. Weather by CustomWeather, © 2023

Note: Actual official high and low records may vary slightly from our data, if they occured in-between our weather recording intervals... More about our weather records

Haywards Heath Weather History for the Previous 24 Hours

Scroll right to see more
 ConditionsComfort  
Time TempWeatherWind HumidityBarometerVisibility
11:20 pm
Wed, Feb 8
27 °FClear.3 mph93%30.45 "Hg6 mi
10:50 pm28 °FPassing clouds.2 mph86%30.45 "Hg6 mi
10:20 pm28 °FClear.1 mph93%30.45 "Hg10 mi
9:50 pm30 °FPassing clouds.3 mph86%30.45 "HgN/A
9:20 pm30 °FClear.2 mph86%30.45 "Hg10 mi
8:50 pm30 °FClear.1 mph86%30.45 "Hg10 mi
8:20 pm30 °FClear.1 mph93%30.45 "Hg10 mi
7:50 pm32 °FClear.1 mph87%30.45 "Hg10 mi
7:20 pm32 °FClear.1 mph87%30.45 "Hg10 mi
6:50 pm34 °FClear.1 mph81%30.45 "Hg10 mi
6:20 pm37 °FClear.2 mph75%30.45 "Hg10 mi
5:50 pm39 °FClear.3 mph70%30.48 "Hg10 mi
5:20 pm41 °FClear.5 mph61%30.48 "Hg10 mi
4:50 pm43 °FPassing clouds.6 mph53%30.48 "HgN/A
4:20 pm45 °FPassing clouds.6 mph53%30.48 "HgN/A
3:50 pm45 °FSunny.8 mph49%30.48 "Hg10 mi
3:20 pm46 °FPassing clouds.7 mph57%30.48 "HgN/A
1:50 pm45 °FPassing clouds.9 mph57%30.51 "HgN/A
1:20 pm45 °FPassing clouds.6 mph61%30.54 "HgN/A
12:50 pm45 °FPassing clouds.5 mph61%30.54 "HgN/A
12:20 pm43 °FPassing clouds.3 mph76%30.57 "HgN/A
11:50 am43 °FSunny.2 mph76%30.57 "Hg10 mi
11:20 am37 °FClear.2 mph87%30.57 "Hg6 mi
10:50 am36 °FClear.2 mph87%30.60 "Hg6 mi
10:20 am32 °FFog.1 mph100%30.60 "Hg5 mi
9:50 am30 °FFog.1 mph93%30.60 "Hg5 mi
9:20 am28 °FChilly.1 mph100%30.60 "Hg4 mi
8:50 am27 °FChilly.1 mph93%30.60 "Hg1 mi
8:20 am23 °FIce fog.2 mph100%30.60 "Hg1 mi
7:50 am23 °FIce fog.2 mph100%30.60 "Hg1 mi
7:20 am23 °FIce fog.1 mph100%30.60 "Hg1 mi
6:50 am23 °FCold.1 mph100%30.60 "Hg1 mi
6:20 am23 °FIce fog.1 mph100%30.60 "Hg0 mi
5:50 am25 °FIce fog.1 mph93%30.60 "Hg0 mi
5:20 am25 °FIce fog.1 mph100%30.60 "Hg0 mi
4:50 am27 °FIce fog.1 mph93%30.60 "Hg0 mi
4:20 am27 °FIce fog.2 mph93%30.60 "Hg0 mi
3:50 am27 °FIce fog.No wind93%30.60 "Hg0 mi
3:20 am27 °FIce fog.1 mph100%30.60 "Hg0 mi
2:50 am27 °FIce fog.1 mph100%30.63 "Hg1 mi
2:20 am27 °FIce fog.1 mph93%30.63 "Hg1 mi
1:50 am27 °FChilly.1 mph93%30.63 "Hg4 mi
1:20 am27 °FFog.1 mph93%30.63 "Hg4 mi
12:50 am27 °FFog.1 mph93%30.66 "Hg5 mi
Weather by CustomWeather, © 2023

See weather overview